sensor_id;sensor_type;location;lat;lon;timestamp;P1;durP1;ratioP1;P2;durP2;ratioP2
8331;SDS011;4203;48.144;14.118;2022-07-22T00:02:03;17.63;;;15.68;;
8331;SDS011;4203;48.144;14.118;2022-07-22T00:04:30;17.13;;;15.45;;
8331;SDS011;4203;48.144;14.118;2022-07-22T00:06:58;17.83;;;15.95;;
8331;SDS011;4203;48.144;14.118;2022-07-22T00:09:25;16.75;;;15.02;;
8331;SDS011;4203;48.144;14.118;2022-07-22T00:11:52;15.27;;;13.40;;
8331;SDS011;4203;48.144;14.118;2022-07-22T00:14:21;17.90;;;15.88;;
8331;SDS011;4203;48.144;14.118;2022-07-22T00:16:48;16.88;;;15.15;;
8331;SDS011;4203;48.144;14.118;2022-07-22T00:19:15;16.73;;;15.07;;
8331;SDS011;4203;48.144;14.118;2022-07-22T00:21:42;17.48;;;15.68;;
8331;SDS011;4203;48.144;14.118;2022-07-22T00:24:10;17.80;;;16.00;;
8331;SDS011;4203;48.144;14.118;2022-07-22T00:26:37;19.73;;;17.45;;
8331;SDS011;4203;48.144;14.118;2022-07-22T00:29:04;20.27;;;17.95;;
8331;SDS011;4203;48.144;14.118;2022-07-22T00:31:33;19.02;;;16.75;;
8331;SDS011;4203;48.144;14.118;2022-07-22T00:34:00;18.80;;;16.95;;
8331;SDS011;4203;48.144;14.118;2022-07-22T00:36:28;19.48;;;17.38;;
8331;SDS011;4203;48.144;14.118;2022-07-22T00:38:56;20.88;;;18.10;;
8331;SDS011;4203;48.144;14.118;2022-07-22T00:41:24;18.30;;;16.40;;
8331;SDS011;4203;48.144;14.118;2022-07-22T00:43:52;19.20;;;17.30;;
8331;SDS011;4203;48.144;14.118;2022-07-22T00:46:21;19.88;;;17.88;;
8331;SDS011;4203;48.144;14.118;2022-07-22T00:48:50;17.48;;;15.73;;
8331;SDS011;4203;48.144;14.118;2022-07-22T00:51:17;17.83;;;16.02;;
8331;SDS011;4203;48.144;14.118;2022-07-22T00:53:45;18.10;;;16.35;;
8331;SDS011;4203;48.144;14.118;2022-07-22T00:56:13;19.92;;;17.45;;
8331;SDS011;4203;48.144;14.118;2022-07-22T00:58:42;18.65;;;16.85;;
8331;SDS011;4203;48.144;14.118;2022-07-22T01:01:10;18.20;;;16.35;;
8331;SDS011;4203;48.144;14.118;2022-07-22T01:03:38;19.05;;;16.15;;
8331;SDS011;4203;48.144;14.118;2022-07-22T01:06:07;18.17;;;16.33;;
8331;SDS011;4203;48.144;14.118;2022-07-22T01:08:35;22.13;;;16.05;;
8331;SDS011;4203;48.144;14.118;2022-07-22T01:11:08;18.88;;;16.90;;
8331;SDS011;4203;48.144;14.118;2022-07-22T01:13:36;20.88;;;17.38;;
8331;SDS011;4203;48.144;14.118;2022-07-22T01:16:04;18.90;;;16.98;;
8331;SDS011;4203;48.144;14.118;2022-07-22T01:18:33;20.08;;;18.02;;
8331;SDS011;4203;48.144;14.118;2022-07-22T01:21:04;19.40;;;17.48;;
8331;SDS011;4203;48.144;14.118;2022-07-22T01:23:31;19.77;;;17.67;;
8331;SDS011;4203;48.144;14.118;2022-07-22T01:25:59;21.42;;;17.58;;
8331;SDS011;4203;48.144;14.118;2022-07-22T01:28:26;18.83;;;16.92;;
8331;SDS011;4203;48.144;14.118;2022-07-22T01:30:54;19.58;;;17.50;;
8331;SDS011;4203;48.144;14.118;2022-07-22T01:33:21;18.75;;;16.83;;
8331;SDS011;4203;48.144;14.118;2022-07-22T01:35:49;20.55;;;18.35;;
8331;SDS011;4203;48.144;14.118;2022-07-22T01:38:18;18.20;;;16.50;;
8331;SDS011;4203;48.144;14.118;2022-07-22T01:40:45;18.80;;;16.38;;
8331;SDS011;4203;48.144;14.118;2022-07-22T01:43:13;19.40;;;17.02;;
8331;SDS011;4203;48.144;14.118;2022-07-22T01:45:43;19.17;;;17.13;;
8331;SDS011;4203;48.144;14.118;2022-07-22T01:48:10;18.40;;;16.48;;
8331;SDS011;4203;48.144;14.118;2022-07-22T01:50:38;18.65;;;16.67;;
8331;SDS011;4203;48.144;14.118;2022-07-22T01:53:06;19.70;;;17.67;;
8331;SDS011;4203;48.144;14.118;2022-07-22T01:55:34;19.30;;;17.45;;
8331;SDS011;4203;48.144;14.118;2022-07-22T01:58:02;20.30;;;18.23;;
8331;SDS011;4203;48.144;14.118;2022-07-22T02:00:30;16.42;;;14.85;;
8331;SDS011;4203;48.144;14.118;2022-07-22T02:02:58;18.05;;;16.20;;
8331;SDS011;4203;48.144;14.118;2022-07-22T02:05:25;18.83;;;16.98;;
8331;SDS011;4203;48.144;14.118;2022-07-22T02:07:53;18.80;;;17.00;;
8331;SDS011;4203;48.144;14.118;2022-07-22T02:10:24;20.08;;;17.90;;
8331;SDS011;4203;48.144;14.118;2022-07-22T02:12:53;18.73;;;16.35;;
8331;SDS011;4203;48.144;14.118;2022-07-22T02:15:20;18.73;;;17.00;;
8331;SDS011;4203;48.144;14.118;2022-07-22T02:17:48;18.58;;;16.60;;
8331;SDS011;4203;48.144;14.118;2022-07-22T02:20:15;16.30;;;14.05;;
8331;SDS011;4203;48.144;14.118;2022-07-22T02:22:42;16.25;;;14.73;;
8331;SDS011;4203;48.144;14.118;2022-07-22T02:25:09;17.50;;;15.80;;
8331;SDS011;4203;48.144;14.118;2022-07-22T02:27:37;17.70;;;15.93;;
8331;SDS011;4203;48.144;14.118;2022-07-22T02:30:07;19.10;;;17.08;;
8331;SDS011;4203;48.144;14.118;2022-07-22T02:32:35;17.83;;;14.65;;
8331;SDS011;4203;48.144;14.118;2022-07-22T02:35:03;17.02;;;15.43;;
8331;SDS011;4203;48.144;14.118;2022-07-22T02:37:30;18.27;;;16.27;;
8331;SDS011;4203;48.144;14.118;2022-07-22T02:39:58;23.33;;;14.77;;
8331;SDS011;4203;48.144;14.118;2022-07-22T02:42:25;17.70;;;16.00;;
8331;SDS011;4203;48.144;14.118;2022-07-22T02:44:53;19.52;;;15.30;;
8331;SDS011;4203;48.144;14.118;2022-07-22T02:47:21;17.00;;;15.40;;
8331;SDS011;4203;48.144;14.118;2022-07-22T02:49:50;17.05;;;15.30;;
8331;SDS011;4203;48.144;14.118;2022-07-22T02:52:17;18.33;;;14.43;;
8331;SDS011;4203;48.144;14.118;2022-07-22T02:54:44;17.27;;;15.57;;
8331;SDS011;4203;48.144;14.118;2022-07-22T02:57:11;17.02;;;15.25;;
8331;SDS011;4203;48.144;14.118;2022-07-22T02:59:39;16.77;;;15.05;;
8331;SDS011;4203;48.144;14.118;2022-07-22T03:02:06;16.17;;;14.57;;
8331;SDS011;4203;48.144;14.118;2022-07-22T03:04:35;17.08;;;15.40;;
8331;SDS011;4203;48.144;14.118;2022-07-22T03:07:02;16.67;;;15.13;;
8331;SDS011;4203;48.144;14.118;2022-07-22T03:09:29;16.42;;;14.73;;
8331;SDS011;4203;48.144;14.118;2022-07-22T03:11:56;16.92;;;15.18;;
8331;SDS011;4203;48.144;14.118;2022-07-22T03:14:23;16.55;;;13.82;;
8331;SDS011;4203;48.144;14.118;2022-07-22T03:16:51;15.40;;;13.80;;
8331;SDS011;4203;48.144;14.118;2022-07-22T03:19:18;15.27;;;13.88;;
8331;SDS011;4203;48.144;14.118;2022-07-22T03:21:47;15.98;;;14.40;;
8331;SDS011;4203;48.144;14.118;2022-07-22T03:24:14;16.17;;;14.45;;
8331;SDS011;4203;48.144;14.118;2022-07-22T03:26:41;16.00;;;14.48;;
8331;SDS011;4203;48.144;14.118;2022-07-22T03:29:08;15.52;;;14.13;;
8331;SDS011;4203;48.144;14.118;2022-07-22T03:31:35;16.42;;;14.70;;
8331;SDS011;4203;48.144;14.118;2022-07-22T03:34:02;16.08;;;14.38;;
8331;SDS011;4203;48.144;14.118;2022-07-22T03:36:30;17.23;;;15.52;;
8331;SDS011;4203;48.144;14.118;2022-07-22T03:38:58;15.38;;;13.80;;
8331;SDS011;4203;48.144;14.118;2022-07-22T03:41:26;17.83;;;13.85;;
8331;SDS011;4203;48.144;14.118;2022-07-22T03:43:53;15.38;;;13.88;;
8331;SDS011;4203;48.144;14.118;2022-07-22T03:46:20;15.80;;;14.30;;
8331;SDS011;4203;48.144;14.118;2022-07-22T03:48:47;17.70;;;15.05;;
8331;SDS011;4203;48.144;14.118;2022-07-22T03:51:14;16.23;;;14.73;;
8331;SDS011;4203;48.144;14.118;2022-07-22T03:53:42;18.50;;;16.70;;
8331;SDS011;4203;48.144;14.118;2022-07-22T03:56:10;19.23;;;16.60;;
8331;SDS011;4203;48.144;14.118;2022-07-22T03:58:37;18.38;;;15.50;;
8331;SDS011;4203;48.144;14.118;2022-07-22T04:01:05;15.52;;;13.90;;
8331;SDS011;4203;48.144;14.118;2022-07-22T04:03:32;14.63;;;12.93;;
8331;SDS011;4203;48.144;14.118;2022-07-22T04:05:59;15.88;;;14.07;;
8331;SDS011;4203;48.144;14.118;2022-07-22T04:08:26;16.17;;;14.50;;
8331;SDS011;4203;48.144;14.118;2022-07-22T04:10:53;17.08;;;14.32;;
8331;SDS011;4203;48.144;14.118;2022-07-22T04:13:22;14.57;;;13.18;;
8331;SDS011;4203;48.144;14.118;2022-07-22T04:15:49;17.58;;;14.05;;
8331;SDS011;4203;48.144;14.118;2022-07-22T04:18:16;15.98;;;14.25;;
8331;SDS011;4203;48.144;14.118;2022-07-22T04:20:43;16.08;;;14.35;;
8331;SDS011;4203;48.144;14.118;2022-07-22T04:23:11;16.38;;;14.48;;
8331;SDS011;4203;48.144;14.118;2022-07-22T04:25:39;15.32;;;13.77;;
8331;SDS011;4203;48.144;14.118;2022-07-22T04:28:06;16.63;;;13.43;;
8331;SDS011;4203;48.144;14.118;2022-07-22T04:30:35;17.13;;;14.27;;
8331;SDS011;4203;48.144;14.118;2022-07-22T04:33:02;15.48;;;13.82;;
8331;SDS011;4203;48.144;14.118;2022-07-22T04:35:29;14.60;;;13.15;;
8331;SDS011;4203;48.144;14.118;2022-07-22T04:37:56;15.25;;;13.75;;
8331;SDS011;4203;48.144;14.118;2022-07-22T04:40:24;14.55;;;13.27;;
8331;SDS011;4203;48.144;14.118;2022-07-22T04:42:51;13.43;;;12.15;;
8331;SDS011;4203;48.144;14.118;2022-07-22T04:45:18;14.23;;;12.70;;
8331;SDS011;4203;48.144;14.118;2022-07-22T04:47:47;14.93;;;13.43;;
8331;SDS011;4203;48.144;14.118;2022-07-22T04:50:14;15.43;;;13.57;;
8331;SDS011;4203;48.144;14.118;2022-07-22T04:52:41;15.48;;;12.85;;
8331;SDS011;4203;48.144;14.118;2022-07-22T04:55:09;15.57;;;14.18;;
8331;SDS011;4203;48.144;14.118;2022-07-22T04:57:36;18.05;;;13.32;;
8331;SDS011;4203;48.144;14.118;2022-07-22T05:00:04;17.55;;;13.95;;
8331;SDS011;4203;48.144;14.118;2022-07-22T05:02:32;17.10;;;13.98;;
8331;SDS011;4203;48.144;14.118;2022-07-22T05:05:01;17.75;;;14.25;;
8331;SDS011;4203;48.144;14.118;2022-07-22T05:07:28;15.93;;;14.23;;
8331;SDS011;4203;48.144;14.118;2022-07-22T05:09:55;17.40;;;13.18;;
8331;SDS011;4203;48.144;14.118;2022-07-22T05:12:22;14.73;;;13.30;;
8331;SDS011;4203;48.144;14.118;2022-07-22T05:14:50;18.38;;;16.60;;
8331;SDS011;4203;48.144;14.118;2022-07-22T05:17:17;19.77;;;16.65;;
8331;SDS011;4203;48.144;14.118;2022-07-22T05:19:44;20.05;;;17.90;;
8331;SDS011;4203;48.144;14.118;2022-07-22T05:22:12;19.08;;;17.27;;
8331;SDS011;4203;48.144;14.118;2022-07-22T05:24:40;17.40;;;14.73;;
8331;SDS011;4203;48.144;14.118;2022-07-22T05:27:07;18.67;;;16.77;;
8331;SDS011;4203;48.144;14.118;2022-07-22T05:29:34;17.77;;;15.98;;
8331;SDS011;4203;48.144;14.118;2022-07-22T05:32:01;16.15;;;14.55;;
8331;SDS011;4203;48.144;14.118;2022-07-22T05:34:28;16.30;;;14.80;;
8331;SDS011;4203;48.144;14.118;2022-07-22T05:36:56;17.35;;;15.70;;
8331;SDS011;4203;48.144;14.118;2022-07-22T05:39:24;18.65;;;16.80;;
8331;SDS011;4203;48.144;14.118;2022-07-22T05:41:51;16.65;;;15.15;;
8331;SDS011;4203;48.144;14.118;2022-07-22T05:44:19;16.98;;;15.38;;
8331;SDS011;4203;48.144;14.118;2022-07-22T05:46:46;15.73;;;14.20;;
8331;SDS011;4203;48.144;14.118;2022-07-22T05:49:13;17.38;;;15.73;;
8331;SDS011;4203;48.144;14.118;2022-07-22T05:51:40;17.42;;;15.68;;
8331;SDS011;4203;48.144;14.118;2022-07-22T05:54:07;16.95;;;15.23;;
8331;SDS011;4203;48.144;14.118;2022-07-22T05:56:36;18.05;;;16.35;;
8331;SDS011;4203;48.144;14.118;2022-07-22T05:59:03;17.88;;;16.08;;
8331;SDS011;4203;48.144;14.118;2022-07-22T06:01:30;17.75;;;16.02;;
8331;SDS011;4203;48.144;14.118;2022-07-22T06:03:57;17.10;;;15.50;;
8331;SDS011;4203;48.144;14.118;2022-07-22T06:06:24;16.20;;;14.43;;
8331;SDS011;4203;48.144;14.118;2022-07-22T06:08:52;16.60;;;14.90;;
8331;SDS011;4203;48.144;14.118;2022-07-22T06:11:19;19.50;;;17.20;;
8331;SDS011;4203;48.144;14.118;2022-07-22T06:13:47;19.17;;;17.25;;
8331;SDS011;4203;48.144;14.118;2022-07-22T06:16:15;18.20;;;16.35;;
8331;SDS011;4203;48.144;14.118;2022-07-22T06:18:42;17.58;;;15.88;;
8331;SDS011;4203;48.144;14.118;2022-07-22T06:21:09;18.13;;;16.20;;
8331;SDS011;4203;48.144;14.118;2022-07-22T06:23:36;17.17;;;15.55;;
8331;SDS011;4203;48.144;14.118;2022-07-22T06:26:03;19.70;;;16.73;;
8331;SDS011;4203;48.144;14.118;2022-07-22T06:28:31;17.15;;;15.32;;
8331;SDS011;4203;48.144;14.118;2022-07-22T06:30:59;17.20;;;15.50;;
8331;SDS011;4203;48.144;14.118;2022-07-22T06:33:26;15.50;;;14.10;;
8331;SDS011;4203;48.144;14.118;2022-07-22T06:35:54;17.70;;;15.95;;
8331;SDS011;4203;48.144;14.118;2022-07-22T06:38:21;17.92;;;16.10;;
8331;SDS011;4203;48.144;14.118;2022-07-22T06:40:48;17.20;;;15.50;;
8331;SDS011;4203;48.144;14.118;2022-07-22T06:43:15;17.20;;;15.60;;
8331;SDS011;4203;48.144;14.118;2022-07-22T06:45:43;16.23;;;14.73;;
8331;SDS011;4203;48.144;14.118;2022-07-22T06:48:11;16.13;;;14.43;;
8331;SDS011;4203;48.144;14.118;2022-07-22T06:50:38;14.90;;;13.50;;
8331;SDS011;4203;48.144;14.118;2022-07-22T06:53:06;14.80;;;13.48;;
8331;SDS011;4203;48.144;14.118;2022-07-22T06:55:33;13.90;;;12.70;;
8331;SDS011;4203;48.144;14.118;2022-07-22T06:58:00;14.07;;;12.85;;
8331;SDS011;4203;48.144;14.118;2022-07-22T07:00:27;14.85;;;12.68;;
8331;SDS011;4203;48.144;14.118;2022-07-22T07:02:57;13.52;;;12.43;;
8331;SDS011;4203;48.144;14.118;2022-07-22T07:05:26;13.95;;;12.48;;
8331;SDS011;4203;48.144;14.118;2022-07-22T07:07:54;13.68;;;12.35;;
8331;SDS011;4203;48.144;14.118;2022-07-22T07:10:22;15.93;;;12.75;;
8331;SDS011;4203;48.144;14.118;2022-07-22T07:12:49;12.75;;;11.63;;
8331;SDS011;4203;48.144;14.118;2022-07-22T07:15:21;12.45;;;11.32;;
8331;SDS011;4203;48.144;14.118;2022-07-22T07:17:48;13.57;;;12.38;;
8331;SDS011;4203;48.144;14.118;2022-07-22T07:20:15;12.02;;;10.93;;
8331;SDS011;4203;48.144;14.118;2022-07-22T07:22:44;12.85;;;11.65;;
8331;SDS011;4203;48.144;14.118;2022-07-22T07:25:12;12.25;;;11.15;;
8331;SDS011;4203;48.144;14.118;2022-07-22T07:27:39;12.75;;;11.10;;
8331;SDS011;4203;48.144;14.118;2022-07-22T07:30:06;14.55;;;13.13;;
8331;SDS011;4203;48.144;14.118;2022-07-22T07:32:35;12.07;;;11.05;;
8331;SDS011;4203;48.144;14.118;2022-07-22T07:35:02;12.75;;;11.65;;
8331;SDS011;4203;48.144;14.118;2022-07-22T07:37:30;12.60;;;11.40;;
8331;SDS011;4203;48.144;14.118;2022-07-22T07:39:58;12.75;;;11.65;;
8331;SDS011;4203;48.144;14.118;2022-07-22T07:42:26;11.73;;;10.68;;
8331;SDS011;4203;48.144;14.118;2022-07-22T07:44:53;12.50;;;10.60;;
8331;SDS011;4203;48.144;14.118;2022-07-22T07:47:21;12.40;;;11.30;;
8331;SDS011;4203;48.144;14.118;2022-07-22T07:49:48;13.68;;;12.35;;
8331;SDS011;4203;48.144;14.118;2022-07-22T07:52:16;13.40;;;12.13;;
8331;SDS011;4203;48.144;14.118;2022-07-22T07:54:44;13.45;;;12.07;;
8331;SDS011;4203;48.144;14.118;2022-07-22T07:57:13;13.65;;;12.30;;
8331;SDS011;4203;48.144;14.118;2022-07-22T07:59:40;13.30;;;12.20;;
8331;SDS011;4203;48.144;14.118;2022-07-22T08:02:07;14.13;;;12.93;;
8331;SDS011;4203;48.144;14.118;2022-07-22T08:04:35;14.05;;;12.75;;
8331;SDS011;4203;48.144;14.118;2022-07-22T08:07:02;13.20;;;12.00;;
8331;SDS011;4203;48.144;14.118;2022-07-22T08:09:30;13.50;;;12.30;;
8331;SDS011;4203;48.144;14.118;2022-07-22T08:11:57;13.27;;;12.05;;
8331;SDS011;4203;48.144;14.118;2022-07-22T08:14:26;13.60;;;12.38;;
8331;SDS011;4203;48.144;14.118;2022-07-22T08:16:53;13.23;;;11.57;;
8331;SDS011;4203;48.144;14.118;2022-07-22T08:19:21;13.32;;;12.15;;
8331;SDS011;4203;48.144;14.118;2022-07-22T08:21:48;12.77;;;11.63;;
8331;SDS011;4203;48.144;14.118;2022-07-22T08:24:15;12.95;;;11.85;;
8331;SDS011;4203;48.144;14.118;2022-07-22T08:26:42;11.10;;;10.20;;
8331;SDS011;4203;48.144;14.118;2022-07-22T08:29:09;13.15;;;11.95;;
8331;SDS011;4203;48.144;14.118;2022-07-22T08:31:38;11.77;;;10.75;;
8331;SDS011;4203;48.144;14.118;2022-07-22T08:34:05;15.93;;;11.82;;
8331;SDS011;4203;48.144;14.118;2022-07-22T08:36:32;12.65;;;11.43;;
8331;SDS011;4203;48.144;14.118;2022-07-22T08:39:00;12.80;;;11.13;;
8331;SDS011;4203;48.144;14.118;2022-07-22T08:41:27;10.68;;;9.68;;
8331;SDS011;4203;48.144;14.118;2022-07-22T08:43:59;12.60;;;11.38;;
8331;SDS011;4203;48.144;14.118;2022-07-22T08:46:28;12.50;;;11.23;;
8331;SDS011;4203;48.144;14.118;2022-07-22T08:48:56;11.45;;;10.25;;
8331;SDS011;4203;48.144;14.118;2022-07-22T08:51:26;12.15;;;10.93;;
8331;SDS011;4203;48.144;14.118;2022-07-22T08:53:53;12.50;;;11.30;;
8331;SDS011;4203;48.144;14.118;2022-07-22T08:56:21;10.43;;;9.52;;
8331;SDS011;4203;48.144;14.118;2022-07-22T08:58:48;10.07;;;9.18;;
8331;SDS011;4203;48.144;14.118;2022-07-22T09:01:16;10.65;;;9.80;;
8331;SDS011;4203;48.144;14.118;2022-07-22T09:03:44;13.10;;;11.88;;
8331;SDS011;4203;48.144;14.118;2022-07-22T09:06:14;16.80;;;12.75;;
8331;SDS011;4203;48.144;14.118;2022-07-22T09:08:54;12.90;;;11.55;;
8331;SDS011;4203;48.144;14.118;2022-07-22T09:11:22;11.90;;;10.88;;
8331;SDS011;4203;48.144;14.118;2022-07-22T09:13:51;13.60;;;12.30;;
8331;SDS011;4203;48.144;14.118;2022-07-22T09:19:08;11.13;;;9.95;;
8331;SDS011;4203;48.144;14.118;2022-07-22T09:21:37;10.55;;;9.55;;
8331;SDS011;4203;48.144;14.118;2022-07-22T09:24:05;10.93;;;9.68;;
8331;SDS011;4203;48.144;14.118;2022-07-22T09:26:34;9.60;;;8.77;;
8331;SDS011;4203;48.144;14.118;2022-07-22T09:29:03;9.57;;;8.60;;
8331;SDS011;4203;48.144;14.118;2022-07-22T09:31:32;10.27;;;9.00;;
8331;SDS011;4203;48.144;14.118;2022-07-22T09:34:00;10.35;;;9.30;;
8331;SDS011;4203;48.144;14.118;2022-07-22T09:36:29;10.30;;;9.30;;
8331;SDS011;4203;48.144;14.118;2022-07-22T09:38:58;9.02;;;8.32;;
8331;SDS011;4203;48.144;14.118;2022-07-22T09:41:25;8.98;;;8.18;;
8331;SDS011;4203;48.144;14.118;2022-07-22T09:43:52;8.85;;;7.95;;
8331;SDS011;4203;48.144;14.118;2022-07-22T09:46:32;8.73;;;8.02;;
8331;SDS011;4203;48.144;14.118;2022-07-22T09:49:02;8.60;;;7.72;;
8331;SDS011;4203;48.144;14.118;2022-07-22T09:51:29;8.55;;;7.75;;
8331;SDS011;4203;48.144;14.118;2022-07-22T09:53:58;9.30;;;8.40;;
8331;SDS011;4203;48.144;14.118;2022-07-22T09:56:25;10.35;;;8.93;;
8331;SDS011;4203;48.144;14.118;2022-07-22T09:58:55;9.15;;;8.35;;
8331;SDS011;4203;48.144;14.118;2022-07-22T10:01:22;9.13;;;8.43;;
8331;SDS011;4203;48.144;14.118;2022-07-22T10:03:51;9.07;;;8.38;;
8331;SDS011;4203;48.144;14.118;2022-07-22T10:06:20;9.10;;;8.30;;
8331;SDS011;4203;48.144;14.118;2022-07-22T10:08:47;8.65;;;7.95;;
8331;SDS011;4203;48.144;14.118;2022-07-22T10:11:18;7.60;;;7.10;;
8331;SDS011;4203;48.144;14.118;2022-07-22T10:13:45;8.35;;;7.55;;
8331;SDS011;4203;48.144;14.118;2022-07-22T10:16:13;7.25;;;6.75;;
8331;SDS011;4203;48.144;14.118;2022-07-22T10:18:43;7.13;;;6.63;;
8331;SDS011;4203;48.144;14.118;2022-07-22T10:21:11;7.57;;;6.88;;
8331;SDS011;4203;48.144;14.118;2022-07-22T10:24:06;8.25;;;7.55;;
8331;SDS011;4203;48.144;14.118;2022-07-22T10:29:25;8.27;;;6.88;;
8331;SDS011;4203;48.144;14.118;2022-07-22T10:37:49;8.35;;;7.55;;
8331;SDS011;4203;48.144;14.118;2022-07-22T10:40:22;7.55;;;6.93;;
8331;SDS011;4203;48.144;14.118;2022-07-22T10:43:09;7.80;;;7.25;;
8331;SDS011;4203;48.144;14.118;2022-07-22T10:45:41;7.53;;;6.82;;
8331;SDS011;4203;48.144;14.118;2022-07-22T10:48:12;7.90;;;6.93;;
8331;SDS011;4203;48.144;14.118;2022-07-22T10:50:42;8.20;;;7.32;;
8331;SDS011;4203;48.144;14.118;2022-07-22T10:53:13;7.43;;;6.72;;
8331;SDS011;4203;48.144;14.118;2022-07-22T10:55:58;8.18;;;7.40;;
8331;SDS011;4203;48.144;14.118;2022-07-22T11:01:17;8.10;;;7.38;;
8331;SDS011;4203;48.144;14.118;2022-07-22T11:03:46;10.05;;;7.55;;
8331;SDS011;4203;48.144;14.118;2022-07-22T11:06:16;7.70;;;7.10;;
8331;SDS011;4203;48.144;14.118;2022-07-22T11:08:46;8.38;;;7.53;;
8331;SDS011;4203;48.144;14.118;2022-07-22T11:11:14;7.47;;;6.88;;
8331;SDS011;4203;48.144;14.118;2022-07-22T11:13:42;7.80;;;7.30;;
8331;SDS011;4203;48.144;14.118;2022-07-22T11:16:16;8.13;;;7.32;;
8331;SDS011;4203;48.144;14.118;2022-07-22T11:18:49;7.68;;;7.07;;
8331;SDS011;4203;48.144;14.118;2022-07-22T11:21:18;7.55;;;6.82;;
8331;SDS011;4203;48.144;14.118;2022-07-22T11:23:47;8.00;;;7.30;;
8331;SDS011;4203;48.144;14.118;2022-07-22T11:26:17;8.63;;;7.72;;
8331;SDS011;4203;48.144;14.118;2022-07-22T11:28:49;7.30;;;6.70;;
8331;SDS011;4203;48.144;14.118;2022-07-22T11:31:18;7.18;;;6.63;;
8331;SDS011;4203;48.144;14.118;2022-07-22T11:33:45;7.50;;;6.57;;
8331;SDS011;4203;48.144;14.118;2022-07-22T11:36:13;7.63;;;6.70;;
8331;SDS011;4203;48.144;14.118;2022-07-22T11:38:41;9.93;;;6.97;;
8331;SDS011;4203;48.144;14.118;2022-07-22T11:41:11;7.15;;;6.45;;
8331;SDS011;4203;48.144;14.118;2022-07-22T11:43:42;8.10;;;6.75;;
8331;SDS011;4203;48.144;14.118;2022-07-22T11:46:10;6.93;;;6.28;;
8331;SDS011;4203;48.144;14.118;2022-07-22T11:48:39;7.22;;;6.63;;
8331;SDS011;4203;48.144;14.118;2022-07-22T11:51:07;7.20;;;6.45;;
8331;SDS011;4203;48.144;14.118;2022-07-22T11:53:36;6.75;;;6.30;;
8331;SDS011;4203;48.144;14.118;2022-07-22T11:56:05;6.80;;;6.28;;
8331;SDS011;4203;48.144;14.118;2022-07-22T11:58:41;6.90;;;6.20;;
8331;SDS011;4203;48.144;14.118;2022-07-22T12:01:10;7.05;;;6.45;;
8331;SDS011;4203;48.144;14.118;2022-07-22T12:03:41;8.98;;;6.38;;
8331;SDS011;4203;48.144;14.118;2022-07-22T12:06:12;6.38;;;5.88;;
8331;SDS011;4203;48.144;14.118;2022-07-22T12:08:44;7.30;;;6.70;;
8331;SDS011;4203;48.144;14.118;2022-07-22T12:11:14;9.27;;;6.30;;
8331;SDS011;4203;48.144;14.118;2022-07-22T12:13:43;6.88;;;6.28;;
8331;SDS011;4203;48.144;14.118;2022-07-22T12:16:18;7.53;;;6.80;;
8331;SDS011;4203;48.144;14.118;2022-07-22T12:18:51;6.90;;;6.40;;
8331;SDS011;4203;48.144;14.118;2022-07-22T12:21:21;6.53;;;5.93;;
8331;SDS011;4203;48.144;14.118;2022-07-22T12:23:50;6.28;;;5.78;;
8331;SDS011;4203;48.144;14.118;2022-07-22T12:26:18;7.80;;;6.20;;
8331;SDS011;4203;48.144;14.118;2022-07-22T12:29:12;6.50;;;6.00;;
8331;SDS011;4203;48.144;14.118;2022-07-22T12:31:43;6.75;;;6.05;;
8331;SDS011;4203;48.144;14.118;2022-07-22T12:34:13;6.13;;;5.72;;
8331;SDS011;4203;48.144;14.118;2022-07-22T12:36:42;6.25;;;5.63;;
8331;SDS011;4203;48.144;14.118;2022-07-22T12:39:12;6.43;;;5.88;;
8331;SDS011;4203;48.144;14.118;2022-07-22T12:41:44;5.90;;;5.53;;
8331;SDS011;4203;48.144;14.118;2022-07-22T12:44:16;6.15;;;5.65;;
8331;SDS011;4203;48.144;14.118;2022-07-22T12:46:45;6.50;;;6.10;;
8331;SDS011;4203;48.144;14.118;2022-07-22T12:49:14;6.57;;;6.00;;
8331;SDS011;4203;48.144;14.118;2022-07-22T12:54:31;6.88;;;6.25;;
8331;SDS011;4203;48.144;14.118;2022-07-22T12:56:58;7.18;;;6.53;;
8331;SDS011;4203;48.144;14.118;2022-07-22T12:59:26;6.80;;;6.20;;
8331;SDS011;4203;48.144;14.118;2022-07-22T13:01:53;6.10;;;5.70;;
8331;SDS011;4203;48.144;14.118;2022-07-22T13:04:22;6.47;;;5.88;;
8331;SDS011;4203;48.144;14.118;2022-07-22T13:06:49;6.93;;;6.32;;
8331;SDS011;4203;48.144;14.118;2022-07-22T13:09:16;6.32;;;5.93;;
8331;SDS011;4203;48.144;14.118;2022-07-22T13:11:44;7.68;;;5.95;;
8331;SDS011;4203;48.144;14.118;2022-07-22T13:14:11;7.65;;;6.03;;
8331;SDS011;4203;48.144;14.118;2022-07-22T13:16:39;6.20;;;5.80;;
8331;SDS011;4203;48.144;14.118;2022-07-22T13:19:07;8.43;;;6.00;;
8331;SDS011;4203;48.144;14.118;2022-07-22T13:21:35;7.20;;;6.57;;
8331;SDS011;4203;48.144;14.118;2022-07-22T13:24:03;6.28;;;5.60;;
8331;SDS011;4203;48.144;14.118;2022-07-22T13:26:30;7.32;;;6.10;;
8331;SDS011;4203;48.144;14.118;2022-07-22T13:28:57;7.15;;;6.53;;
8331;SDS011;4203;48.144;14.118;2022-07-22T13:31:25;6.35;;;5.70;;
8331;SDS011;4203;48.144;14.118;2022-07-22T13:33:53;6.68;;;6.10;;
8331;SDS011;4203;48.144;14.118;2022-07-22T13:36:20;6.55;;;5.95;;
8331;SDS011;4203;48.144;14.118;2022-07-22T13:38:50;5.93;;;5.43;;
8331;SDS011;4203;48.144;14.118;2022-07-22T13:41:17;6.30;;;5.80;;
8331;SDS011;4203;48.144;14.118;2022-07-22T13:43:45;6.38;;;5.82;;
8331;SDS011;4203;48.144;14.118;2022-07-22T13:46:14;6.32;;;5.65;;
8331;SDS011;4203;48.144;14.118;2022-07-22T13:48:41;7.38;;;5.68;;
8331;SDS011;4203;48.144;14.118;2022-07-22T13:51:09;5.63;;;5.22;;
8331;SDS011;4203;48.144;14.118;2022-07-22T13:53:36;5.20;;;4.80;;
8331;SDS011;4203;48.144;14.118;2022-07-22T13:56:06;6.07;;;5.68;;
8331;SDS011;4203;48.144;14.118;2022-07-22T13:58:35;5.45;;;4.95;;
8331;SDS011;4203;48.144;14.118;2022-07-22T14:01:02;5.47;;;5.18;;
8331;SDS011;4203;48.144;14.118;2022-07-22T14:03:29;5.63;;;5.18;;
8331;SDS011;4203;48.144;14.118;2022-07-22T14:05:56;5.65;;;5.00;;
8331;SDS011;4203;48.144;14.118;2022-07-22T14:08:23;5.43;;;5.03;;
8331;SDS011;4203;48.144;14.118;2022-07-22T14:10:51;7.40;;;5.32;;
8331;SDS011;4203;48.144;14.118;2022-07-22T14:13:19;5.53;;;5.13;;
8331;SDS011;4203;48.144;14.118;2022-07-22T14:15:46;7.15;;;5.80;;
8331;SDS011;4203;48.144;14.118;2022-07-22T14:18:13;5.10;;;4.80;;
8331;SDS011;4203;48.144;14.118;2022-07-22T14:20:41;5.43;;;4.97;;
8331;SDS011;4203;48.144;14.118;2022-07-22T14:23:08;5.18;;;4.78;;
8331;SDS011;4203;48.144;14.118;2022-07-22T14:25:36;5.60;;;5.10;;
8331;SDS011;4203;48.144;14.118;2022-07-22T14:28:04;5.78;;;5.28;;
8331;SDS011;4203;48.144;14.118;2022-07-22T14:30:33;5.88;;;5.38;;
8331;SDS011;4203;48.144;14.118;2022-07-22T14:33:02;5.53;;;5.10;;
8331;SDS011;4203;48.144;14.118;2022-07-22T14:35:29;5.55;;;5.15;;
8331;SDS011;4203;48.144;14.118;2022-07-22T14:37:59;5.20;;;4.88;;
8331;SDS011;4203;48.144;14.118;2022-07-22T14:40:27;6.03;;;5.47;;
8331;SDS011;4203;48.144;14.118;2022-07-22T14:42:54;5.35;;;4.95;;
8331;SDS011;4203;48.144;14.118;2022-07-22T14:45:21;5.38;;;4.88;;
8331;SDS011;4203;48.144;14.118;2022-07-22T14:47:50;5.25;;;4.90;;
8331;SDS011;4203;48.144;14.118;2022-07-22T14:50:17;5.85;;;5.35;;
8331;SDS011;4203;48.144;14.118;2022-07-22T14:52:44;5.38;;;5.03;;
8331;SDS011;4203;48.144;14.118;2022-07-22T14:55:12;5.85;;;5.25;;
8331;SDS011;4203;48.144;14.118;2022-07-22T14:57:39;8.57;;;5.18;;
8331;SDS011;4203;48.144;14.118;2022-07-22T15:00:06;5.43;;;5.03;;
8331;SDS011;4203;48.144;14.118;2022-07-22T15:02:34;5.57;;;5.18;;
8331;SDS011;4203;48.144;14.118;2022-07-22T15:05:03;6.18;;;5.68;;
8331;SDS011;4203;48.144;14.118;2022-07-22T15:07:30;5.32;;;5.03;;